Time;durP1;ratioP1;P1;durP2;ratioP2;P2;SDS_P1;SDS_P2;PMS_P1;PMS_P2;Temp;Humidity;BMP_temperature;BMP_pressure;BME280_temperature;BME280_humidity;BME280_pressure;Samples;Min_cycle;Max_cycle;Signal;HPM_P1;HPM_P2
2023/06/24 00:02:12;;;;;;;14.27;9.98;;;31.00;98.60;;;;;;5066596;28;20062;-64
2023/06/24 00:04:39;;;;;;;12.95;8.95;;;31.00;98.60;;;;;;5066146;28;20033;-64
2023/06/24 00:07:06;;;;;;;13.60;7.57;;;31.10;98.60;;;;;;5065954;28;20031;-62
2023/06/24 00:09:33;;;;;;;11.65;6.80;;;31.10;98.70;;;;;;5066037;28;20097;-63
2023/06/24 00:11:59;;;;;;;9.07;6.38;;;31.00;98.60;;;;;;5066284;28;20181;-64
2023/06/24 00:14:27;;;;;;;11.25;9.32;;;31.00;98.60;;;;;;5065920;28;20320;-63
2023/06/24 00:16:54;;;;;;;15.50;10.93;;;31.00;98.60;;;;;;5066085;28;20033;-65
2023/06/24 00:19:23;;;;;;;11.80;7.85;;;31.00;98.60;;;;;;5065976;28;20025;-65
2023/06/24 00:21:53;;;;;;;11.05;6.78;;;31.00;98.60;;;;;;5065829;28;20028;-64
2023/06/24 00:24:25;;;;;;;9.93;7.55;;;30.90;98.60;;;;;;5065809;28;20024;-65
2023/06/24 00:26:53;;;;;;;11.73;9.18;;;30.90;98.60;;;;;;5065988;28;20181;-64
2023/06/24 00:29:19;;;;;;;12.52;8.70;;;30.90;98.60;;;;;;5065251;28;20066;-64
2023/06/24 00:31:46;;;;;;;12.10;8.23;;;30.90;98.90;;;;;;5065648;28;20029;-65
2023/06/24 00:34:12;;;;;;;8.20;6.53;;;30.90;98.70;;;;;;5065467;28;20108;-64
2023/06/24 00:36:39;;;;;;;10.23;7.40;;;30.90;98.60;;;;;;5065311;28;20024;-63
2023/06/24 00:39:05;;;;;;;9.55;7.25;;;30.80;98.60;;;;;;5065598;28;20025;-64
2023/06/24 00:41:34;;;;;;;10.68;8.88;;;30.80;98.60;;;;;;5065531;28;20033;-64
2023/06/24 00:44:01;;;;;;;12.73;8.80;;;30.80;98.60;;;;;;5065173;28;20063;-64
2023/06/24 00:46:31;;;;;;;12.88;9.45;;;30.80;98.60;;;;;;5062019;28;20066;-64
2023/06/24 00:48:58;;;;;;;13.45;9.20;;;30.80;98.60;;;;;;5061082;28;20316;-64
2023/06/24 00:51:26;;;;;;;11.50;7.20;;;30.80;98.60;;;;;;5065315;28;20320;-63
2023/06/24 00:53:55;;;;;;;8.77;6.28;;;30.80;98.60;;;;;;5064988;28;20096;-64
2023/06/24 00:56:31;;;;;;;8.25;5.45;;;30.70;98.60;;;;;;5065124;28;20032;-64
2023/06/24 00:59:04;;;;;;;7.88;4.90;;;30.70;98.60;;;;;;5064987;28;20052;-64
2023/06/24 01:01:36;;;;;;;5.47;4.10;;;30.70;98.60;;;;;;5065134;28;20092;-63
2023/06/24 01:04:03;;;;;;;5.88;3.72;;;30.70;98.60;;;;;;5064876;28;20029;-63
2023/06/24 01:06:31;;;;;;;6.35;3.92;;;30.70;98.60;;;;;;5064710;28;20064;-64
2023/06/24 01:09:02;;;;;;;6.90;3.33;;;30.70;98.70;;;;;;5064804;28;20023;-64
2023/06/24 01:11:30;;;;;;;5.93;3.33;;;30.60;98.70;;;;;;5064702;28;20032;-63
2023/06/24 01:13:57;;;;;;;6.63;3.20;;;30.70;98.70;;;;;;5064736;28;20224;-62
2023/06/24 01:17:19;;;;;;;6.35;2.80;;;30.60;98.70;;;;;;5064708;28;20031;-63
2023/06/24 01:19:48;;;;;;;6.57;2.97;;;30.70;98.80;;;;;;5055680;28;20064;-65
2023/06/24 01:22:34;;;;;;;4.72;2.38;;;30.70;98.80;;;;;;5064906;28;20088;-63
2023/06/24 01:25:26;;;;;;;4.65;2.33;;;30.70;98.80;;;;;;5064417;28;20032;-62
2023/06/24 01:28:20;;;;;;;5.88;2.38;;;30.70;98.80;;;;;;5064697;28;20017;-63
2023/06/24 01:31:18;;;;;;;3.45;2.35;;;30.60;98.80;;;;;;5064508;28;20332;-63
2023/06/24 01:34:17;;;;;;;7.30;2.17;;;30.60;98.80;;;;;;5064426;28;20558;-64
2023/06/24 01:36:54;;;;;;;5.75;2.50;;;30.70;98.80;;;;;;5048346;28;20047;-64
2023/06/24 01:39:25;;;;;;;4.10;2.28;;;30.60;98.70;;;;;;5064343;28;20193;-63
2023/06/24 01:42:02;;;;;;;7.07;3.13;;;30.60;98.70;;;;;;5063741;28;20331;-62
2023/06/24 01:44:30;;;;;;;7.90;3.17;;;30.50;98.70;;;;;;5064204;28;20040;-63
2023/06/24 01:46:58;;;;;;;4.68;2.55;;;30.50;98.80;;;;;;5064339;28;20036;-62
2023/06/24 01:49:29;;;;;;;4.85;2.70;;;30.50;98.70;;;;;;5063858;28;20024;-62
2023/06/24 01:52:00;;;;;;;5.32;2.35;;;30.50;98.80;;;;;;5064077;28;20071;-63
2023/06/24 01:54:28;;;;;;;3.83;2.47;;;30.40;98.80;;;;;;5063804;28;20104;-62
2023/06/24 01:56:57;;;;;;;5.38;3.30;;;30.50;98.90;;;;;;5063934;28;20020;-62
2023/06/24 01:59:25;;;;;;;5.53;2.50;;;30.50;98.90;;;;;;5063839;28;20056;-62
2023/06/24 02:01:52;;;;;;;6.15;2.20;;;30.40;99.00;;;;;;5063989;28;20025;-62
2023/06/24 02:04:20;;;;;;;4.03;1.60;;;30.40;98.90;;;;;;5063932;28;20040;-64
2023/06/24 02:06:48;;;;;;;5.32;2.00;;;30.30;98.90;;;;;;5064173;28;20029;-63
2023/06/24 02:09:19;;;;;;;5.25;2.38;;;30.30;99.00;;;;;;5063750;28;20356;-63
2023/06/24 02:11:47;;;;;;;7.20;2.83;;;30.40;99.00;;;;;;5063897;28;20066;-63
2023/06/24 02:14:16;;;;;;;3.35;2.50;;;30.40;99.10;;;;;;5063860;28;20225;-63
2023/06/24 02:16:46;;;;;;;5.78;2.80;;;30.40;99.10;;;;;;5063558;28;20213;-64
2023/06/24 02:19:17;;;;;;;6.30;2.85;;;30.40;99.10;;;;;;5063899;28;20036;-63
2023/06/24 02:21:44;;;;;;;6.45;2.17;;;30.50;99.10;;;;;;5063717;28;20032;-64
2023/06/24 02:24:12;;;;;;;6.68;2.17;;;30.40;99.00;;;;;;5063581;28;20096;-64
2023/06/24 02:26:40;;;;;;;4.30;2.50;;;30.40;99.10;;;;;;5063757;28;20029;-63
2023/06/24 02:29:12;;;;;;;6.38;2.53;;;30.40;99.10;;;;;;5063696;28;20100;-64
2023/06/24 02:31:40;;;;;;;6.97;2.65;;;30.40;99.10;;;;;;5063709;28;20178;-65
2023/06/24 02:34:06;;;;;;;5.82;2.28;;;30.40;99.30;;;;;;5063416;28;20107;-64
2023/06/24 02:36:33;;;;;;;6.70;2.20;;;30.40;99.40;;;;;;5063311;28;20032;-64
2023/06/24 02:38:59;;;;;;;5.03;2.28;;;30.40;99.40;;;;;;5063574;28;20067;-65
2023/06/24 02:41:26;;;;;;;5.63;2.20;;;30.40;99.40;;;;;;5063633;28;20027;-64
2023/06/24 02:43:52;;;;;;;5.68;2.33;;;30.40;99.40;;;;;;5063439;28;20072;-65
2023/06/24 02:46:21;;;;;;;4.88;2.30;;;30.40;99.50;;;;;;5063353;28;20344;-65
2023/06/24 02:48:49;;;;;;;6.88;3.42;;;30.30;99.40;;;;;;5063432;28;20067;-64
2023/06/24 02:51:16;;;;;;;5.47;2.75;;;30.30;99.50;;;;;;5063469;28;20336;-63
2023/06/24 02:53:45;;;;;;;6.97;2.40;;;30.30;99.70;;;;;;5066147;28;20051;-64
2023/06/24 02:56:13;;;;;;;4.88;2.30;;;30.30;99.80;;;;;;5067340;28;20233;-63
2023/06/24 02:58:40;;;;;;;5.55;2.10;;;30.20;99.90;;;;;;5066969;28;20336;-62
2023/06/24 03:01:08;;;;;;;10.52;2.22;;;30.20;99.90;;;;;;5067424;28;20400;-63
2023/06/24 03:03:35;;;;;;;4.43;1.90;;;30.20;99.90;;;;;;5066904;28;20037;-63
2023/06/24 03:06:02;;;;;;;4.97;1.90;;;30.20;99.90;;;;;;5067302;28;20040;-63
2023/06/24 03:08:29;;;;;;;4.40;1.50;;;30.20;99.90;;;;;;5067099;28;20091;-64
2023/06/24 03:10:57;;;;;;;6.78;1.73;;;30.10;99.90;;;;;;5067257;28;20040;-66
2023/06/24 03:13:23;;;;;;;2.67;1.45;;;30.10;99.90;;;;;;5067525;28;20071;-62
2023/06/24 03:15:50;;;;;;;3.35;1.40;;;30.20;99.90;;;;;;5066872;28;20029;-64
2023/06/24 03:18:17;;;;;;;7.03;1.63;;;30.10;99.90;;;;;;5067508;28;20033;-64
2023/06/24 03:20:47;;;;;;;2.92;1.60;;;30.20;99.90;;;;;;5066940;28;20021;-63
2023/06/24 03:23:13;;;;;;;6.68;1.70;;;30.10;99.90;;;;;;5067281;28;20104;-64
2023/06/24 03:25:39;;;;;;;4.05;1.60;;;30.20;99.90;;;;;;5066900;28;20037;-64
2023/06/24 03:28:07;;;;;;;4.47;1.90;;;30.20;99.90;;;;;;5067214;28;20025;-63
2023/06/24 03:30:34;;;;;;;9.07;2.33;;;30.20;99.90;;;;;;5066776;28;20040;-66
2023/06/24 03:33:00;;;;;;;8.18;2.15;;;30.20;99.90;;;;;;5067324;28;20218;-64
2023/06/24 03:35:26;;;;;;;6.57;1.98;;;30.30;99.90;;;;;;5066641;28;20325;-64
2023/06/24 03:37:53;;;;;;;5.82;2.55;;;30.20;99.90;;;;;;5066426;28;20032;-64
2023/06/24 03:40:20;;;;;;;10.75;2.10;;;30.20;99.90;;;;;;5066628;28;20036;-64
2023/06/24 03:42:48;;;;;;;7.10;2.38;;;30.20;99.90;;;;;;5066902;28;20017;-64
2023/06/24 03:45:14;;;;;;;6.00;2.47;;;30.10;99.90;;;;;;5066361;28;20017;-64
2023/06/24 03:47:40;;;;;;;7.03;2.60;;;30.10;99.90;;;;;;5066812;28;20422;-64
2023/06/24 03:50:07;;;;;;;3.70;2.67;;;30.10;99.90;;;;;;5066830;28;20320;-65
2023/06/24 03:52:34;;;;;;;5.53;2.58;;;30.10;99.90;;;;;;5066583;28;20029;-65
2023/06/24 03:55:03;;;;;;;5.20;1.90;;;30.10;99.90;;;;;;5066511;28;20095;-65
2023/06/24 03:57:29;;;;;;;6.28;2.00;;;30.10;99.90;;;;;;5066388;28;20028;-66
2023/06/24 03:59:56;;;;;;;6.88;1.80;;;30.10;99.90;;;;;;5065938;28;20363;-66
2023/06/24 04:02:22;;;;;;;3.95;1.70;;;30.10;99.90;;;;;;5066334;28;20293;-65
2023/06/24 04:04:50;;;;;;;5.22;1.77;;;30.10;99.90;;;;;;5065572;28;20025;-66
2023/06/24 04:07:27;;;;;;;4.53;1.60;;;30.10;99.90;;;;;;5066184;28;20028;-65
2023/06/24 04:09:56;;;;;;;6.10;1.50;;;30.10;99.90;;;;;;5066017;28;20068;-65
2023/06/24 04:12:23;;;;;;;3.28;1.40;;;30.10;99.90;;;;;;5066027;28;20048;-65
2023/06/24 04:14:50;;;;;;;4.10;1.92;;;30.10;99.90;;;;;;5065990;28;20078;-65
2023/06/24 04:17:18;;;;;;;7.85;1.52;;;30.00;99.90;;;;;;5066005;28;20044;-59
2023/06/24 04:19:44;;;;;;;4.53;1.40;;;30.10;99.90;;;;;;5065732;28;20374;-59
2023/06/24 04:22:11;;;;;;;4.07;1.70;;;30.10;99.90;;;;;;5065703;28;20313;-58
2023/06/24 04:24:37;;;;;;;4.65;1.50;;;30.00;99.90;;;;;;5065752;28;20017;-62
2023/06/24 04:27:05;;;;;;;4.35;1.63;;;30.00;99.90;;;;;;5065706;28;20052;-57
2023/06/24 04:29:32;;;;;;;7.32;2.05;;;30.00;99.90;;;;;;5058126;28;20229;-60
2023/06/24 04:31:58;;;;;;;2.42;1.35;;;30.00;99.90;;;;;;5059915;28;20020;-58
2023/06/24 04:34:25;;;;;;;5.70;1.67;;;29.90;99.90;;;;;;5056496;28;20029;-59
2023/06/24 04:36:51;;;;;;;5.38;1.58;;;29.90;99.90;;;;;;5039141;28;20309;-61
2023/06/24 04:39:19;;;;;;;6.13;1.42;;;29.80;99.90;;;;;;5049242;28;20009;-58
2023/06/24 04:41:46;;;;;;;4.72;1.25;;;29.80;99.90;;;;;;5054825;28;20036;-57
2023/06/24 04:44:13;;;;;;;5.90;1.20;;;29.80;99.80;;;;;;5049474;28;20072;-58
2023/06/24 04:46:40;;;;;;;3.70;1.30;;;29.80;99.60;;;;;;5045526;28;20315;-61
2023/06/24 04:49:07;;;;;;;4.80;1.10;;;29.70;99.50;;;;;;5063756;28;20039;-59
2023/06/24 04:51:33;;;;;;;6.85;1.60;;;29.60;99.30;;;;;;5065728;28;20055;-59
2023/06/24 04:54:01;;;;;;;5.72;1.25;;;29.60;99.20;;;;;;5065458;28;20251;-56
2023/06/24 04:56:28;;;;;;;6.22;1.10;;;29.60;99.10;;;;;;5065034;28;20031;-58
2023/06/24 04:58:54;;;;;;;5.82;1.20;;;29.60;99.00;;;;;;5064816;28;20049;-59
2023/06/24 05:01:22;;;;;;;5.25;1.02;;;29.60;98.80;;;;;;5062709;28;20017;-58
2023/06/24 05:03:48;;;;;;;5.47;1.27;;;29.50;98.70;;;;;;5059676;28;20058;-60
2023/06/24 05:06:14;;;;;;;1.85;1.10;;;29.50;98.70;;;;;;5064853;28;20188;-58
2023/06/24 05:08:41;;;;;;;2.03;1.10;;;29.50;98.70;;;;;;5064950;28;20079;-62
2023/06/24 05:11:07;;;;;;;4.00;1.02;;;29.50;98.80;;;;;;5063652;28;20096;-62
2023/06/24 05:13:34;;;;;;;4.53;1.23;;;29.50;98.90;;;;;;5064754;28;20029;-60
2023/06/24 05:16:02;;;;;;;3.78;1.20;;;29.50;98.80;;;;;;5063943;28;20025;-59
2023/06/24 05:18:28;;;;;;;5.47;1.30;;;29.40;98.70;;;;;;5065241;28;20189;-58
2023/06/24 05:20:55;;;;;;;3.58;1.40;;;29.40;98.70;;;;;;5064621;28;20232;-60
2023/06/24 05:23:21;;;;;;;3.67;1.00;;;29.40;98.70;;;;;;5065105;28;20106;-59
2023/06/24 05:25:48;;;;;;;2.70;0.90;;;29.30;98.50;;;;;;5064399;28;20173;-58
2023/06/24 05:28:14;;;;;;;6.68;0.80;;;29.30;98.50;;;;;;5064986;28;20039;-58
2023/06/24 05:30:42;;;;;;;2.90;0.90;;;29.30;98.20;;;;;;5064563;28;20051;-61
2023/06/24 05:33:08;;;;;;;2.05;0.90;;;29.20;98.00;;;;;;5065145;28;20296;-60
2023/06/24 05:35:37;;;;;;;5.85;0.70;;;29.20;97.80;;;;;;5064301;28;20380;-59
2023/06/24 05:38:03;;;;;;;3.13;0.55;;;29.10;97.60;;;;;;5064758;28;20017;-59
2023/06/24 05:40:30;;;;;;;4.45;0.70;;;29.10;97.40;;;;;;5055621;28;20025;-56
2023/06/24 05:42:56;;;;;;;1.20;0.60;;;29.00;97.20;;;;;;5064558;28;20071;-58
2023/06/24 05:45:22;;;;;;;1.23;0.70;;;28.90;97.00;;;;;;5064636;28;20036;-62
2023/06/24 05:47:49;;;;;;;0.52;0.40;;;28.90;96.90;;;;;;5064498;28;20169;-57
2023/06/24 05:50:15;;;;;;;1.35;0.60;;;28.90;96.70;;;;;;5064005;28;20225;-58
2023/06/24 05:52:42;;;;;;;2.90;0.75;;;28.80;96.70;;;;;;5064399;28;20017;-59
2023/06/24 05:55:09;;;;;;;3.30;0.70;;;28.80;96.70;;;;;;5063687;28;20025;-62
2023/06/24 05:57:36;;;;;;;2.97;0.70;;;28.80;96.70;;;;;;5064290;28;20067;-61
2023/06/24 06:00:04;;;;;;;5.97;1.00;;;28.90;96.90;;;;;;5063081;28;20100;-60
2023/06/24 06:02:30;;;;;;;4.85;0.93;;;28.90;96.60;;;;;;5064189;28;20025;-62
2023/06/24 06:04:57;;;;;;;2.25;0.65;;;28.90;96.50;;;;;;5064039;28;20036;-63
2023/06/24 06:07:23;;;;;;;3.60;0.60;;;28.90;96.50;;;;;;5064319;28;20182;-61
2023/06/24 06:09:50;;;;;;;2.88;0.95;;;28.90;96.40;;;;;;5064136;28;20033;-61
2023/06/24 06:12:16;;;;;;;13.32;3.15;;;28.90;96.50;;;;;;5063787;28;20243;-61
2023/06/24 06:14:43;;;;;;;8.63;2.30;;;29.00;96.80;;;;;;5063761;28;20320;-62
2023/06/24 06:17:09;;;;;;;6.22;1.70;;;29.00;97.10;;;;;;5063891;28;20032;-61
2023/06/24 06:19:36;;;;;;;4.75;1.58;;;29.10;97.30;;;;;;5063906;28;20092;-62
2023/06/24 06:22:02;;;;;;;4.05;1.30;;;29.10;97.50;;;;;;5063733;28;20013;-62
2023/06/24 06:24:29;;;;;;;4.78;1.17;;;29.10;97.60;;;;;;5055540;28;20100;-62
2023/06/24 06:26:57;;;;;;;3.20;1.10;;;29.10;97.50;;;;;;5063909;28;20029;-62
2023/06/24 06:29:24;;;;;;;2.13;1.00;;;29.10;97.60;;;;;;5063513;28;20336;-61
2023/06/24 06:31:50;;;;;;;8.15;1.30;;;29.00;97.60;;;;;;5063703;28;20033;-62
2023/06/24 06:34:17;;;;;;;5.70;1.52;;;29.10;97.70;;;;;;5063567;28;20033;-62
2023/06/24 06:36:43;;;;;;;11.25;2.65;;;29.10;97.80;;;;;;5063516;28;20319;-61
2023/06/24 06:39:10;;;;;;;7.05;2.60;;;29.10;97.90;;;;;;5063546;28;20025;-61
2023/06/24 06:41:36;;;;;;;8.15;2.13;;;29.10;98.10;;;;;;5063634;28;20033;-62
2023/06/24 06:44:03;;;;;;;9.15;2.28;;;29.10;98.10;;;;;;5063468;28;20186;-61
2023/06/24 06:46:29;;;;;;;5.70;1.58;;;29.00;98.30;;;;;;5063617;28;20048;-61
2023/06/24 06:48:56;;;;;;;7.13;1.85;;;29.00;98.40;;;;;;5063449;28;20043;-62
2023/06/24 06:51:24;;;;;;;9.10;3.00;;;29.00;98.50;;;;;;5063276;28;20374;-61
2023/06/24 06:53:50;;;;;;;8.00;2.40;;;29.00;98.50;;;;;;5063411;28;20360;-61
2023/06/24 06:56:19;;;;;;;11.30;2.63;;;29.00;98.60;;;;;;5063290;28;20100;-61
2023/06/24 06:58:45;;;;;;;8.32;2.67;;;28.90;98.50;;;;;;5062995;28;20040;-61
2023/06/24 07:01:12;;;;;;;8.38;2.10;;;28.90;98.60;;;;;;5063386;28;20029;-61
2023/06/24 07:03:39;;;;;;;13.82;2.10;;;28.80;98.70;;;;;;5063479;28;20056;-62
2023/06/24 07:19:36;;;;;;;5.68;1.30;;;28.80;98.60;;;;;;5061484;28;20414;-60
2023/06/24 07:22:02;;;;;;;4.28;1.10;;;28.90;98.30;;;;;;5056128;28;20037;-60
2023/06/24 07:24:28;;;;;;;2.38;0.98;;;28.70;98.30;;;;;;5052225;28;20032;-60
2023/06/24 07:26:55;;;;;;;3.38;0.98;;;28.70;98.50;;;;;;5053385;28;20021;-61
2023/06/24 07:29:21;;;;;;;2.47;0.80;;;28.70;98.60;;;;;;5061449;28;20041;-60
2023/06/24 07:31:48;;;;;;;4.28;1.00;;;28.70;98.60;;;;;;5060722;28;20088;-61
2023/06/24 07:34:16;;;;;;;4.30;0.90;;;28.70;98.60;;;;;;5061377;28;20023;-61
2023/06/24 07:36:42;;;;;;;3.50;0.60;;;28.60;98.70;;;;;;5060798;28;20028;-60
2023/06/24 07:39:08;;;;;;;2.03;0.77;;;28.60;98.60;;;;;;5061093;28;20036;-60
2023/06/24 07:41:35;;;;;;;2.42;0.80;;;28.60;98.70;;;;;;5060933;28;20213;-61
2023/06/24 07:44:01;;;;;;;2.80;0.60;;;28.60;98.80;;;;;;5061110;28;20029;-60
2023/06/24 07:46:28;;;;;;;3.22;0.68;;;28.50;98.80;;;;;;5060361;28;20096;-60
2023/06/24 07:48:54;;;;;;;3.55;0.75;;;28.50;98.80;;;;;;5061025;28;20059;-62
2023/06/24 07:51:21;;;;;;;1.85;0.77;;;28.50;98.80;;;;;;5060542;28;20033;-62
2023/06/24 07:53:47;;;;;;;1.42;0.57;;;28.40;98.70;;;;;;5060670;28;20032;-61
2023/06/24 07:56:14;;;;;;;0.50;0.50;;;28.40;98.60;;;;;;5060459;28;20264;-61
2023/06/24 07:58:40;;;;;;;1.27;0.60;;;28.40;98.60;;;;;;5060908;28;20044;-61
2023/06/24 08:01:07;;;;;;;2.92;0.55;;;28.40;98.60;;;;;;5060251;28;20045;-61
2023/06/24 08:03:36;;;;;;;5.10;0.60;;;28.40;98.50;;;;;;5060443;28;20060;-63
2023/06/24 08:06:03;;;;;;;2.10;0.50;;;28.30;98.40;;;;;;5060206;28;20033;-61
2023/06/24 08:08:30;;;;;;;2.20;0.63;;;28.30;98.40;;;;;;5060471;28;20152;-59
2023/06/24 08:10:56;;;;;;;2.70;0.60;;;28.30;98.50;;;;;;5060403;28;20033;-62
2023/06/24 08:13:22;;;;;;;3.42;0.60;;;28.30;98.40;;;;;;5060363;28;20037;-62
2023/06/24 08:15:49;;;;;;;8.70;0.60;;;28.30;98.60;;;;;;5060172;28;20032;-62
2023/06/24 08:18:15;;;;;;;2.40;0.60;;;28.30;98.80;;;;;;5049879;28;20060;-61
2023/06/24 08:20:42;;;;;;;1.60;0.60;;;28.30;98.60;;;;;;5046647;28;20029;-59
2023/06/24 08:23:09;;;;;;;1.55;0.50;;;28.20;98.60;;;;;;5046859;28;20025;-62
2023/06/24 08:25:36;;;;;;;2.97;0.50;;;28.30;98.80;;;;;;5046418;28;20025;-62
2023/06/24 08:28:02;;;;;;;0.82;0.50;;;28.30;98.90;;;;;;5046717;28;20041;-61
2023/06/24 08:30:29;;;;;;;0.73;0.50;;;28.40;98.90;;;;;;5046470;28;20187;-61
2023/06/24 08:32:56;;;;;;;4.72;0.57;;;28.30;98.80;;;;;;5046516;28;20021;-61
2023/06/24 08:35:22;;;;;;;1.52;0.45;;;28.40;99.00;;;;;;5046514;28;20029;-61
2023/06/24 08:37:48;;;;;;;1.15;0.60;;;28.30;98.90;;;;;;5046545;28;20017;-60
2023/06/24 08:40:15;;;;;;;1.00;0.50;;;28.30;99.10;;;;;;5046240;28;20022;-61
2023/06/24 08:42:44;;;;;;;1.60;0.60;;;28.30;99.20;;;;;;5046411;28;20317;-60
2023/06/24 08:45:10;;;;;;;1.90;0.75;;;28.20;99.30;;;;;;5046178;28;20317;-60
2023/06/24 08:47:37;;;;;;;2.00;1.00;;;28.30;99.40;;;;;;5046238;28;20033;-59
2023/06/24 08:50:13;;;;;;;1.80;0.90;;;28.40;99.40;;;;;;5046134;28;20132;-59
2023/06/24 08:52:45;;;;;;;5.20;1.00;;;28.30;99.30;;;;;;5046173;28;20063;-61
2023/06/24 08:55:13;;;;;;;;;;;28.20;99.50;;;;;;5046522;28;20026;-59
2023/06/24 08:57:40;;;;;;;3.63;0.90;;;28.20;99.60;;;;;;5046128;28;19905;-60
2023/06/24 09:00:10;;;;;;;3.90;1.10;;;28.20;99.70;;;;;;5045898;28;20379;-58
2023/06/24 09:02:38;;;;;;;2.97;1.10;;;28.20;99.90;;;;;;5046064;28;20040;-60
2023/06/24 09:05:08;;;;;;;4.22;0.80;;;28.20;99.90;;;;;;5045905;28;20343;-61
2023/06/24 09:07:34;;;;;;;1.63;0.88;;;28.30;99.90;;;;;;5045674;28;20030;-61
2023/06/24 09:10:01;;;;;;;2.08;0.70;;;28.30;99.90;;;;;;5045805;28;20017;-60
2023/06/24 09:12:31;;;;;;;3.65;0.90;;;28.30;99.90;;;;;;5045845;28;20021;-60
2023/06/24 09:14:57;;;;;;;2.80;0.75;;;28.30;99.90;;;;;;5045537;28;20051;-62
2023/06/24 09:17:24;;;;;;;4.90;0.70;;;28.20;99.90;;;;;;5045617;28;20025;-60
2023/06/24 09:19:51;;;;;;;3.83;0.75;;;28.20;99.90;;;;;;5045627;28;20025;-60
2023/06/24 09:22:18;;;;;;;4.00;0.95;;;28.20;99.90;;;;;;5045301;28;20048;-62
2023/06/24 09:24:47;;;;;;;2.42;0.73;;;28.20;99.90;;;;;;5045534;28;20021;-61
2023/06/24 09:27:15;;;;;;;5.80;0.80;;;28.20;99.90;;;;;;5045422;28;20326;-59
2023/06/24 09:29:42;;;;;;;2.28;0.98;;;28.20;99.90;;;;;;5044162;28;20313;-60
2023/06/24 09:32:09;;;;;;;4.25;0.98;;;28.10;99.90;;;;;;5045319;28;20027;-59
2023/06/24 09:34:37;;;;;;;5.15;0.90;;;28.20;99.90;;;;;;5045333;28;20014;-59
2023/06/24 09:37:03;;;;;;;4.47;0.90;;;28.20;99.90;;;;;;5045084;28;20107;-60
2023/06/24 09:39:37;;;;;;;2.65;0.90;;;28.20;99.90;;;;;;5045520;28;20214;-61
2023/06/24 09:42:08;;;;;;;5.82;1.00;;;28.20;99.90;;;;;;5045095;28;20031;-60
2023/06/24 09:44:34;;;;;;;1.90;0.90;;;28.20;99.90;;;;;;5044842;28;20216;-61
2023/06/24 09:47:01;;;;;;;5.45;0.98;;;28.20;99.90;;;;;;5045112;28;20293;-61
2023/06/24 09:49:28;;;;;;;1.70;0.82;;;28.10;99.90;;;;;;5045009;28;20041;-62
2023/06/24 09:52:01;;;;;;;2.67;1.00;;;28.20;99.90;;;;;;5044810;28;20075;-62
2023/06/24 09:54:29;;;;;;;1.83;0.88;;;28.10;99.90;;;;;;5044956;28;20033;-61
2023/06/24 09:56:59;;;;;;;4.40;1.15;;;28.20;99.90;;;;;;5044726;28;20329;-60
2023/06/24 09:59:27;;;;;;;2.00;0.90;;;28.20;99.90;;;;;;5044799;28;20037;-61
2023/06/24 10:01:55;;;;;;;2.72;0.93;;;28.20;99.90;;;;;;5044887;28;20032;-61
2023/06/24 10:04:22;;;;;;;3.58;1.23;;;28.20;99.90;;;;;;5044540;28;20029;-61
2023/06/24 10:06:49;;;;;;;10.90;1.15;;;28.10;99.90;;;;;;5044155;28;20032;-61
2023/06/24 10:09:17;;;;;;;3.60;1.00;;;28.10;99.90;;;;;;5045124;28;20064;-61
2023/06/24 10:11:45;;;;;;;5.78;1.00;;;28.10;99.90;;;;;;5041863;28;20066;-60
2023/06/24 10:14:12;;;;;;;5.10;1.08;;;28.20;99.90;;;;;;5044680;28;20224;-61
2023/06/24 10:16:40;;;;;;;6.45;0.98;;;28.10;99.90;;;;;;5044732;28;20368;-60
2023/06/24 10:19:06;;;;;;;7.35;0.80;;;28.20;99.90;;;;;;5044152;28;20080;-60
2023/06/24 10:21:53;;;;;;;2.55;0.80;;;28.10;99.90;;;;;;5043914;28;20063;-63
2023/06/24 10:24:30;;;;;;;4.85;1.00;;;28.10;99.90;;;;;;5044683;28;20100;-56
2023/06/24 10:27:04;;;;;;;4.00;0.70;;;28.00;99.90;;;;;;5044264;28;20029;-54
2023/06/24 10:29:37;;;;;;;4.68;1.08;;;27.90;99.90;;;;;;5044370;28;20038;-57
2023/06/24 10:32:07;;;;;;;7.30;0.80;;;27.90;99.90;;;;;;5044157;28;20013;-59
2023/06/24 10:34:37;;;;;;;6.03;1.10;;;27.80;99.90;;;;;;5044201;28;20029;-58
2023/06/24 10:37:04;;;;;;;6.15;1.20;;;27.80;99.90;;;;;;5043929;28;20045;-57
2023/06/24 10:39:57;;;;;;;11.57;3.65;;;27.80;99.90;;;;;;5044240;28;20321;-63
2023/06/24 10:42:37;;;;;;;7.75;5.00;;;27.80;99.90;;;;;;5043373;28;20040;-61
2023/06/24 10:45:10;;;;;;;5.63;2.33;;;27.80;99.90;;;;;;5044124;28;20029;-61
2023/06/24 10:47:41;;;;;;;3.65;1.25;;;28.00;99.90;;;;;;5043940;28;20063;-62
2023/06/24 10:50:10;;;;;;;5.43;1.40;;;28.10;99.90;;;;;;5044005;28;20021;-60
2023/06/24 10:52:41;;;;;;;6.25;1.40;;;28.20;99.90;;;;;;5044097;28;20033;-61
2023/06/24 10:55:08;;;;;;;6.40;1.75;;;28.20;99.90;;;;;;5042905;28;20064;-63
2023/06/24 10:57:35;;;;;;;6.78;4.50;;;28.20;99.90;;;;;;5042269;28;20029;-62
2023/06/24 11:00:03;;;;;;;6.32;5.72;;;28.20;99.90;;;;;;5042254;28;20387;-62
2023/06/24 11:02:29;;;;;;;7.57;4.40;;;28.10;99.90;;;;;;5042300;28;20036;-62
2023/06/24 11:04:58;;;;;;;9.48;3.03;;;28.20;99.90;;;;;;5042387;28;20018;-62
2023/06/24 11:07:28;;;;;;;6.72;2.10;;;28.20;99.90;;;;;;5042569;28;20064;-63
2023/06/24 11:10:08;;;;;;;2.63;1.90;;;28.20;99.90;;;;;;5043456;28;20033;-62
2023/06/24 11:12:36;;;;;;;6.03;1.65;;;28.20;99.90;;;;;;5043250;28;20017;-61
2023/06/24 11:15:05;;;;;;;2.97;1.77;;;28.20;99.90;;;;;;5052024;28;20026;-61
2023/06/24 11:17:32;;;;;;;6.03;1.45;;;28.20;99.90;;;;;;5050733;28;20035;-61
2023/06/24 11:19:59;;;;;;;4.65;1.27;;;28.20;99.90;;;;;;5049681;28;20053;-62
2023/06/24 11:22:26;;;;;;;4.90;1.20;;;28.20;99.90;;;;;;5043565;28;20045;-61
2023/06/24 11:24:56;;;;;;;4.63;1.38;;;28.20;99.90;;;;;;5043703;28;20037;-62
2023/06/24 11:27:30;;;;;;;3.35;1.17;;;28.20;99.90;;;;;;5043528;28;20034;-61
2023/06/24 11:30:04;;;;;;;6.68;1.60;;;28.20;99.90;;;;;;5057129;28;20033;-62
2023/06/24 11:32:38;;;;;;;5.13;1.65;;;28.30;99.90;;;;;;5059405;28;20036;-62
2023/06/24 11:35:19;;;;;;;3.38;1.30;;;28.30;99.90;;;;;;5043425;28;20087;-62
2023/06/24 11:37:52;;;;;;;3.40;1.03;;;28.30;99.90;;;;;;5043741;28;20026;-61
2023/06/24 11:40:20;;;;;;;4.35;1.45;;;28.30;99.90;;;;;;5036627;28;20030;-61
2023/06/24 11:42:50;;;;;;;3.67;1.27;;;28.30;99.90;;;;;;5023975;28;20033;-62
2023/06/24 11:45:21;;;;;;;13.57;2.45;;;28.30;99.90;;;;;;5023642;28;20080;-62
2023/06/24 11:47:48;;;;;;;29.75;4.68;;;28.30;99.90;;;;;;5023976;28;20225;-60
2023/06/24 11:50:15;;;;;;;34.58;4.57;;;28.40;99.90;;;;;;5023615;28;20030;-61
2023/06/24 11:52:48;;;;;;;27.25;4.00;;;28.40;99.90;;;;;;5024725;28;20345;-61
2023/06/24 11:55:23;;;;;;;14.88;3.22;;;28.40;99.90;;;;;;5026138;28;20045;-61
2023/06/24 11:57:51;;;;;;;13.77;2.67;;;28.50;99.90;;;;;;5026106;28;20317;-60
2023/06/24 12:00:35;;;;;;;11.85;2.75;;;28.50;99.90;;;;;;5031631;28;20094;-59
2023/06/24 12:03:10;;;;;;;7.13;2.08;;;28.50;99.90;;;;;;5027205;28;20022;-60
2023/06/24 12:05:37;;;;;;;6.32;2.10;;;28.50;99.90;;;;;;5025902;28;20046;-60
2023/06/24 12:08:07;;;;;;;7.25;2.60;;;28.50;99.90;;;;;;5025924;28;20036;-64
2023/06/24 12:10:34;;;;;;;7.22;2.50;;;28.50;99.90;;;;;;5027346;28;20022;-61
2023/06/24 12:13:03;;;;;;;3.88;2.08;;;28.50;99.90;;;;;;5027288;28;20034;-61
2023/06/24 12:15:30;;;;;;;4.05;1.90;;;28.60;99.90;;;;;;5026936;28;20241;-62
2023/06/24 12:17:56;;;;;;;7.60;2.05;;;28.50;99.90;;;;;;5026785;28;20064;-62
2023/06/24 12:20:28;;;;;;;5.35;2.38;;;28.50;99.90;;;;;;5027153;28;20042;-61
2023/06/24 12:22:55;;;;;;;4.82;1.80;;;28.50;99.90;;;;;;5026933;28;20329;-62
2023/06/24 12:25:22;;;;;;;6.22;2.17;;;28.50;99.90;;;;;;5026863;28;20049;-60
2023/06/24 12:27:50;;;;;;;6.07;2.28;;;28.60;99.90;;;;;;5025609;28;20214;-62
2023/06/24 12:30:17;;;;;;;6.57;2.70;;;28.50;99.90;;;;;;5027040;28;20026;-62
2023/06/24 12:32:44;;;;;;;6.45;2.05;;;28.60;99.90;;;;;;5026535;28;20038;-60
2023/06/24 12:35:11;;;;;;;6.60;2.03;;;28.60;99.90;;;;;;5025573;28;20033;-60
2023/06/24 12:37:37;;;;;;;18.95;3.05;;;28.60;99.90;;;;;;5026637;28;20037;-60
2023/06/24 12:40:05;;;;;;;22.27;3.70;;;28.60;99.90;;;;;;5030114;28;20129;-60
2023/06/24 12:42:31;;;;;;;17.92;3.63;;;28.60;99.90;;;;;;5045168;28;20212;-59
2023/06/24 12:44:59;;;;;;;10.90;2.40;;;28.70;99.90;;;;;;5046351;28;20063;-60
2023/06/24 12:47:28;;;;;;;6.97;1.92;;;28.70;99.90;;;;;;5045156;28;20021;-62
2023/06/24 12:49:54;;;;;;;11.75;2.15;;;28.70;99.90;;;;;;5046168;28;20067;-62
2023/06/24 12:52:21;;;;;;;15.73;1.90;;;28.70;99.90;;;;;;5046048;28;20087;-61
2023/06/24 12:54:47;;;;;;;8.32;1.90;;;28.70;99.90;;;;;;5045950;28;20022;-62
2023/06/24 12:57:15;;;;;;;6.32;2.05;;;28.80;99.90;;;;;;5046083;28;20065;-61
2023/06/24 12:59:42;;;;;;;8.82;2.53;;;28.80;99.90;;;;;;5046017;28;20029;-62
2023/06/24 13:02:09;;;;;;;3.60;1.70;;;28.80;99.90;;;;;;5045901;28;20060;-61
2023/06/24 13:04:35;;;;;;;6.65;1.67;;;28.90;99.90;;;;;;5045894;28;20065;-61
2023/06/24 13:07:03;;;;;;;7.30;1.80;;;28.90;99.90;;;;;;5045715;28;20325;-62